createdAt,value
2022-09-01T00:00:12.748Z,69.29
2022-09-01T00:01:12.037Z,69.15
2022-09-01T00:02:16.034Z,69.15
2022-09-01T00:03:10.990Z,69.19
2022-09-01T00:04:10.833Z,69.13
2022-09-01T00:05:11.604Z,69.16
2022-09-01T00:06:11.458Z,69.18
2022-09-01T00:07:11.062Z,69.10
2022-09-01T00:08:10.499Z,69.04
2022-09-01T00:09:10.790Z,69.04
2022-09-01T00:10:11.165Z,69.12
2022-09-01T00:11:10.512Z,69.21
2022-09-01T00:12:11.004Z,69.19
2022-09-01T00:13:10.982Z,69.18
2022-09-01T00:14:37.389Z,69.12
2022-09-01T00:15:11.353Z,69.12
2022-09-01T00:16:25.030Z,69.19
2022-09-01T00:17:10.477Z,69.19
2022-09-01T00:18:10.903Z,69.18
2022-09-01T00:19:11.228Z,69.25
2022-09-01T00:20:13.425Z,69.32
2022-09-01T00:21:11.743Z,69.42
2022-09-01T00:22:10.981Z,69.49
2022-09-01T00:23:11.298Z,69.50
2022-09-01T00:24:10.888Z,69.63
2022-09-01T00:25:11.596Z,69.72
2022-09-01T00:26:11.002Z,69.75
2022-09-01T00:27:10.911Z,69.81
2022-09-01T00:28:11.502Z,69.95
2022-09-01T00:29:10.822Z,70.03
2022-09-01T00:30:11.751Z,70.27
2022-09-01T00:31:11.395Z,70.42
2022-09-01T00:32:11.142Z,70.62
2022-09-01T00:33:10.838Z,70.65
2022-09-01T00:34:11.150Z,70.67
2022-09-01T00:35:10.855Z,70.67
2022-09-01T00:36:10.924Z,70.74
2022-09-01T00:37:11.288Z,70.73
2022-09-01T00:38:10.820Z,70.81
2022-09-01T00:39:11.164Z,70.83
2022-09-01T00:40:10.898Z,70.91
2022-09-01T00:41:11.380Z,70.90
2022-09-01T00:42:10.891Z,70.91
2022-09-01T00:43:11.326Z,71.02
2022-09-01T00:44:10.658Z,70.98
2022-09-01T00:45:13.444Z,70.93
2022-09-01T00:46:12.634Z,70.93
2022-09-01T00:47:11.234Z,71.08
2022-09-01T00:48:10.821Z,71.25
2022-09-01T00:49:10.844Z,71.41
2022-09-01T00:50:11.206Z,71.43
2022-09-01T00:51:10.382Z,71.38
2022-09-01T00:52:10.681Z,71.24
2022-09-01T00:53:11.158Z,71.23
2022-09-01T00:54:10.763Z,71.35
2022-09-01T00:55:11.168Z,71.26
2022-09-01T00:56:11.063Z,71.25
2022-09-01T00:57:10.727Z,71.05
2022-09-01T00:58:23.577Z,71.12
2022-09-01T00:59:10.884Z,71.12
2022-09-01T01:00:12.578Z,71.07
2022-09-01T01:01:11.192Z,71.09
2022-09-01T01:02:10.961Z,71.26
2022-09-01T01:03:10.636Z,71.30
2022-09-01T01:04:11.176Z,71.32
2022-09-01T01:05:15.480Z,71.29
2022-09-01T01:06:10.954Z,71.41
2022-09-01T01:07:11.260Z,71.37
2022-09-01T01:08:10.616Z,71.34
2022-09-01T01:09:11.081Z,71.21
2022-09-01T01:10:10.781Z,71.18
2022-09-01T01:11:11.128Z,71.33
2022-09-01T01:12:10.567Z,71.45
2022-09-01T01:13:10.925Z,71.50
2022-09-01T01:14:11.060Z,71.60
2022-09-01T01:15:10.747Z,71.75
2022-09-01T01:16:11.629Z,71.94
2022-09-01T01:17:11.554Z,71.89
2022-09-01T01:18:11.330Z,71.78
2022-09-01T01:19:10.660Z,71.78
2022-09-01T01:20:11.030Z,71.75
2022-09-01T01:21:10.705Z,71.71
2022-09-01T01:22:10.933Z,71.81
2022-09-01T01:23:11.166Z,71.76
2022-09-01T01:24:10.716Z,71.80
2022-09-01T01:25:11.293Z,71.95
2022-09-01T01:26:10.742Z,71.92
2022-09-01T01:27:10.879Z,71.94
2022-09-01T01:28:11.070Z,72.05
2022-09-01T01:29:10.820Z,72.29
2022-09-01T01:30:13.262Z,72.36
2022-09-01T01:31:11.157Z,72.34
2022-09-01T01:32:10.937Z,72.38
2022-09-01T01:33:12.113Z,72.40
2022-09-01T01:34:10.847Z,72.40
2022-09-01T01:35:11.243Z,72.38
2022-09-01T01:36:10.685Z,72.43
2022-09-01T01:37:11.001Z,72.44
2022-09-01T01:38:10.857Z,72.66
2022-09-01T01:39:11.352Z,72.76
2022-09-01T01:40:11.044Z,72.62
2022-09-01T01:41:10.440Z,72.71
2022-09-01T01:42:10.577Z,72.75
2022-09-01T01:43:11.105Z,72.91
2022-09-01T01:44:10.511Z,72.90
2022-09-01T01:45:11.521Z,73.02
2022-09-01T01:46:11.439Z,73.08
2022-09-01T01:47:11.142Z,73.09
2022-09-01T01:48:10.697Z,73.15
2022-09-01T01:49:11.234Z,73.15
2022-09-01T01:50:10.761Z,73.25
2022-09-01T01:51:10.968Z,73.34
2022-09-01T01:52:11.953Z,73.30
2022-09-01T01:53:15.281Z,73.29
2022-09-01T01:54:10.797Z,73.18
2022-09-01T01:55:10.970Z,73.07
2022-09-01T01:56:11.418Z,73.01
2022-09-01T01:57:10.856Z,72.99
2022-09-01T01:58:11.002Z,72.87
2022-09-01T01:59:12.230Z,72.67
2022-09-01T02:00:13.696Z,72.59
2022-09-01T02:01:11.042Z,72.65
2022-09-01T02:02:10.692Z,72.67
2022-09-01T02:03:11.134Z,72.64
2022-09-01T02:04:10.726Z,72.51
2022-09-01T02:05:11.658Z,72.45
2022-09-01T02:06:10.953Z,72.50
2022-09-01T02:07:11.250Z,72.51
2022-09-01T02:08:10.620Z,72.57
2022-09-01T02:09:10.889Z,72.52
2022-09-01T02:10:11.078Z,72.52
2022-09-01T02:11:10.451Z,72.42
2022-09-01T02:12:10.639Z,72.52
2022-09-01T02:13:10.757Z,72.69
2022-09-01T02:14:10.880Z,72.78
2022-09-01T02:15:11.536Z,72.76
2022-09-01T02:16:10.744Z,72.75
2022-09-01T02:17:15.911Z,72.74
2022-09-01T02:18:11.038Z,72.70
2022-09-01T02:19:10.396Z,72.66
2022-09-01T02:20:10.539Z,72.79
2022-09-01T02:21:15.185Z,72.96
2022-09-01T02:22:10.882Z,73.04
2022-09-01T02:23:11.535Z,72.92
2022-09-01T02:24:11.061Z,73
2022-09-01T02:25:10.704Z,73.10
2022-09-01T02:27:11.048Z,73.09
2022-09-01T02:28:10.600Z,73.22
2022-09-01T02:29:10.891Z,73.36
2022-09-01T02:30:11.522Z,73.41
2022-09-01T02:31:11.109Z,73.38
2022-09-01T02:32:10.885Z,73.44
2022-09-01T02:33:11.142Z,73.47
2022-09-01T02:34:10.965Z,73.44
2022-09-01T02:35:11.297Z,73.42
2022-09-01T02:36:10.900Z,73.53
2022-09-01T02:37:10.785Z,73.65
2022-09-01T02:38:11.027Z,73.69
2022-09-01T02:39:11.559Z,73.54
2022-09-01T02:40:10.653Z,73.42
2022-09-01T02:41:11.086Z,73.23
2022-09-01T02:42:10.822Z,73.13
2022-09-01T02:43:11.218Z,73.06
2022-09-01T02:44:10.635Z,73.02
2022-09-01T02:45:11.030Z,73.02
2022-09-01T02:46:11.077Z,73.14
2022-09-01T02:47:10.670Z,73.21
2022-09-01T02:48:10.879Z,73.19
2022-09-01T02:49:11.305Z,73.13
2022-09-01T02:50:10.958Z,73.05
2022-09-01T02:51:11.089Z,73.08
2022-09-01T02:52:10.365Z,73.14
2022-09-01T02:53:10.965Z,73.19
2022-09-01T02:54:11.141Z,73.20
2022-09-01T02:55:10.902Z,73.27
2022-09-01T02:56:11.054Z,73.39
2022-09-01T02:57:10.528Z,73.44
2022-09-01T02:58:10.777Z,73.46
2022-09-01T02:59:10.536Z,73.45
2022-09-01T03:00:11.795Z,73.51
2022-09-01T03:01:10.618Z,73.52
2022-09-01T03:02:10.980Z,73.55
2022-09-01T03:03:11.216Z,73.66
2022-09-01T03:04:10.688Z,73.74
2022-09-01T03:05:11.592Z,73.77
2022-09-01T03:06:11.110Z,73.71
2022-09-01T03:07:10.484Z,73.69
2022-09-01T03:08:10.649Z,73.69
2022-09-01T03:09:11.212Z,73.72
2022-09-01T03:10:10.973Z,73.67
2022-09-01T03:11:16.333Z,73.70
2022-09-01T03:12:10.644Z,73.87
2022-09-01T03:13:10.757Z,73.98
2022-09-01T03:14:10.837Z,74.06
2022-09-01T03:15:16.792Z,74.10
2022-09-01T03:16:11.277Z,74.14
2022-09-01T03:17:10.756Z,74.26
2022-09-01T03:18:10.857Z,74.26
2022-09-01T03:19:10.821Z,74.26
2022-09-01T03:20:10.757Z,74.28
2022-09-01T03:21:10.938Z,74.23
2022-09-01T03:22:11.180Z,74.14
2022-09-01T03:23:10.451Z,74.22
2022-09-01T03:24:10.982Z,74.26
2022-09-01T03:25:10.826Z,74.23
2022-09-01T03:26:10.907Z,74.16
2022-09-01T03:27:11.140Z,74.13
2022-09-01T03:28:10.353Z,74.18
2022-09-01T03:29:10.664Z,74.23
2022-09-01T03:30:11.316Z,74.16
2022-09-01T03:31:10.711Z,74.23
2022-09-01T03:32:11.357Z,74.32
2022-09-01T03:33:10.926Z,74.33
2022-09-01T03:34:11.345Z,74.30
2022-09-01T03:35:10.853Z,74.18
2022-09-01T03:37:11.226Z,74.20
2022-09-01T03:38:11.031Z,74.27
2022-09-01T03:39:16.359Z,74.45
2022-09-01T03:40:11.111Z,74.52
2022-09-01T03:41:10.411Z,74.62
2022-09-01T03:42:10.975Z,74.48
2022-09-01T03:43:11.389Z,74.42
2022-09-01T03:44:10.741Z,74.52
2022-09-01T03:45:11.817Z,74.58
2022-09-01T03:46:12.069Z,74.56
2022-09-01T03:47:10.722Z,74.70
2022-09-01T03:48:10.858Z,74.72
2022-09-01T03:49:11.227Z,74.74
2022-09-01T03:50:10.717Z,74.79
2022-09-01T03:51:11.422Z,74.73
2022-09-01T03:52:10.937Z,74.72
2022-09-01T03:53:11.385Z,74.73
2022-09-01T03:54:10.760Z,74.70
2022-09-01T03:55:12.777Z,74.65
2022-09-01T03:56:11.020Z,74.74
2022-09-01T03:57:10.630Z,74.70
2022-09-01T03:58:13.756Z,74.65
2022-09-01T03:59:11.487Z,74.71
2022-09-01T04:00:12.665Z,74.62
2022-09-01T04:01:16.234Z,74.68
2022-09-01T04:02:11.188Z,74.70
2022-09-01T04:03:10.597Z,74.70
2022-09-01T04:04:11.103Z,74.69
2022-09-01T04:05:12.450Z,74.67
2022-09-01T04:06:10.930Z,74.78
2022-09-01T04:07:11.118Z,74.88
2022-09-01T04:08:10.529Z,74.88
2022-09-01T04:09:10.927Z,74.86
2022-09-01T04:10:10.801Z,74.98
2022-09-01T04:11:10.573Z,74.90
2022-09-01T04:12:10.731Z,74.88
2022-09-01T04:13:11.104Z,74.73
2022-09-01T04:14:10.547Z,74.59
2022-09-01T04:15:11.332Z,74.57
2022-09-01T04:16:11.038Z,74.62
2022-09-01T04:17:11.018Z,74.59
2022-09-01T04:18:10.620Z,74.57
2022-09-01T04:19:10.506Z,74.56
2022-09-01T04:20:10.992Z,74.71
2022-09-01T04:21:10.892Z,74.62
2022-09-01T04:22:11.266Z,74.36
2022-09-01T04:23:10.647Z,74.27
2022-09-01T04:24:11.062Z,74.22
2022-09-01T04:25:10.780Z,74.22
2022-09-01T04:26:11.132Z,74.18
2022-09-01T04:27:10.611Z,74.22
2022-09-01T04:28:10.937Z,74.23
2022-09-01T04:29:11.164Z,74.17
2022-09-01T04:30:10.940Z,74.19
2022-09-01T04:31:11.649Z,74.07
2022-09-01T04:32:11.481Z,74.03
2022-09-01T04:33:11.012Z,74.02
2022-09-01T04:34:10.633Z,73.91
2022-09-01T04:35:11.380Z,73.86
2022-09-01T04:36:10.847Z,73.84
2022-09-01T04:37:11.182Z,73.78
2022-09-01T04:38:10.579Z,73.72
2022-09-01T04:39:12.995Z,73.73
2022-09-01T04:40:10.837Z,73.79
2022-09-01T04:41:11.558Z,73.73
2022-09-01T04:42:10.974Z,73.70
2022-09-01T04:43:11.389Z,73.73
2022-09-01T04:44:10.784Z,73.82
2022-09-01T04:45:19.973Z,73.95
2022-09-01T04:46:11.166Z,73.95
2022-09-01T04:47:10.830Z,73.97
2022-09-01T04:48:11.045Z,74.00
2022-09-01T04:49:16.846Z,74.02
2022-09-01T04:50:11.105Z,74.05
2022-09-01T04:51:10.495Z,74.06
2022-09-01T04:52:10.829Z,74.17
2022-09-01T04:53:10.966Z,74.24
2022-09-01T04:54:11.232Z,74.27
2022-09-01T04:55:10.481Z,74.30
2022-09-01T04:56:10.847Z,74.41
2022-09-01T04:57:11.432Z,74.54
2022-09-01T04:58:13.857Z,74.62
2022-09-01T04:59:11.266Z,74.59
2022-09-01T05:00:11.760Z,74.50
2022-09-01T05:01:11.318Z,74.53
2022-09-01T05:02:11.117Z,74.66
2022-09-01T05:03:10.795Z,74.74
2022-09-01T05:04:11.298Z,74.84
2022-09-01T05:05:11.036Z,74.88
2022-09-01T05:06:10.585Z,74.95
2022-09-01T05:07:11.445Z,75.04
2022-09-01T05:08:10.893Z,75.12
2022-09-01T05:09:11.038Z,75.24
2022-09-01T05:10:11.057Z,75.24
2022-09-01T05:11:10.759Z,75.24
2022-09-01T05:12:12.373Z,75.29
2022-09-01T05:13:10.698Z,75.40
2022-09-01T05:14:11.214Z,75.48
2022-09-01T05:15:11.315Z,75.52
2022-09-01T05:16:10.992Z,75.56
2022-09-01T05:17:11.075Z,75.61
2022-09-01T05:18:10.916Z,75.64
2022-09-01T05:19:11.391Z,75.59
2022-09-01T05:20:10.624Z,75.64
2022-09-01T05:21:10.958Z,75.69
2022-09-01T05:22:11.418Z,75.69
2022-09-01T05:23:10.885Z,75.66
2022-09-01T05:24:11.395Z,75.61
2022-09-01T05:25:11.091Z,75.63
2022-09-01T05:26:10.749Z,75.70
2022-09-01T05:27:11.104Z,75.67
2022-09-01T05:28:10.632Z,75.66
2022-09-01T05:29:11.018Z,75.72
2022-09-01T05:30:11.037Z,75.72
2022-09-01T05:31:10.894Z,75.68
2022-09-01T05:32:11.578Z,75.74
2022-09-01T05:33:11.048Z,75.80
2022-09-01T05:34:10.866Z,75.81
2022-09-01T05:35:11.003Z,75.83
2022-09-01T05:36:11.044Z,75.91
2022-09-01T05:37:10.854Z,75.99
2022-09-01T05:38:11.637Z,76.06
2022-09-01T05:39:11.081Z,76.14
2022-09-01T05:40:12.491Z,76.17
2022-09-01T05:41:10.959Z,76.21
2022-09-01T05:42:11.330Z,76.16
2022-09-01T05:43:11.041Z,76.22
2022-09-01T05:44:10.782Z,76.24
2022-09-01T05:45:11.569Z,76.33
2022-09-01T05:46:11.097Z,76.41
2022-09-01T05:47:11.052Z,76.54
2022-09-01T05:48:10.733Z,76.55
2022-09-01T05:49:10.952Z,76.45
2022-09-01T05:50:17.711Z,76.47
2022-09-01T05:51:44.507Z,76.35
2022-09-01T05:52:11.484Z,76.35
2022-09-01T05:53:16.336Z,76.36
2022-09-01T05:54:11.320Z,76.18
2022-09-01T05:55:11.297Z,75.70
2022-09-01T05:56:10.645Z,75.56
2022-09-01T05:57:36.926Z,75.13
2022-09-01T05:58:11.222Z,75.13
2022-09-01T05:59:28.115Z,74.99
2022-09-01T06:00:11.969Z,74.99
2022-09-01T06:01:10.935Z,75.54
2022-09-01T06:02:12.618Z,75.62
2022-09-01T06:03:11.932Z,60
2022-09-01T06:04:11.000Z,74.69
2022-09-01T06:05:11.153Z,60
2022-09-01T06:06:10.902Z,73.70
2022-09-01T06:07:16.355Z,73.36
2022-09-01T06:08:11.997Z,73.30
2022-09-01T06:09:10.864Z,72.54
2022-09-01T06:10:11.351Z,72.86
2022-09-01T06:11:10.815Z,72.79
2022-09-01T07:45:32.049Z,69.86
2022-09-01T07:46:40.662Z,69.54
2022-09-01T07:47:56.186Z,69.56
2022-09-01T07:48:10.799Z,69.56
2022-09-01T07:50:11.440Z,68.45
2022-09-01T07:51:34.638Z,68.16
2022-09-01T07:51:40.029Z,67.76
2022-09-01T07:52:12.810Z,67.76
2022-09-01T07:53:11.643Z,67.56
2022-09-01T07:54:11.568Z,67.59
2022-09-01T07:55:11.098Z,67.83
2022-09-01T07:56:10.428Z,67.11
2022-09-01T07:57:10.720Z,66.91
2022-09-01T07:58:11.090Z,66.33
2022-09-01T07:59:14.591Z,65.93
2022-09-01T08:00:12.503Z,65.83
2022-09-01T08:01:11.362Z,65.85
2022-09-01T08:02:11.395Z,66.08
2022-09-01T08:03:33.174Z,66.44
2022-09-01T08:04:10.659Z,65.86
2022-09-01T08:05:11.228Z,65.36
2022-09-01T08:06:11.357Z,65.05
2022-09-01T08:07:15.399Z,64.45
2022-09-01T08:08:26.363Z,64.80
2022-09-01T08:09:37.665Z,64.26
2022-09-01T08:10:11.349Z,64.26
2022-09-01T08:11:10.622Z,64.38
2022-09-01T08:12:11.037Z,64.16
2022-09-01T08:13:15.414Z,63.94
2022-09-01T08:14:11.401Z,64.27
2022-09-01T08:16:17.089Z,64.72
2022-09-01T08:17:50.812Z,65.57
2022-09-01T08:18:14.200Z,65.57
2022-09-01T08:19:19.985Z,65.94
2022-09-01T08:20:14.050Z,65.94
2022-09-01T08:21:10.776Z,65.80
2022-09-01T08:22:11.301Z,65.62
2022-09-01T08:23:10.818Z,65.29
2022-09-01T08:24:11.115Z,65.37
2022-09-01T08:25:10.887Z,65.52
2022-09-01T08:26:11.254Z,65.59
2022-09-01T08:27:10.727Z,65.60
2022-09-01T08:28:11.298Z,65.5
2022-09-01T08:29:10.716Z,65.17
2022-09-01T08:30:11.873Z,68
2022-09-01T08:31:14.862Z,64.51
2022-09-01T08:32:11.597Z,64.63
2022-09-01T08:33:14.594Z,64.40
2022-09-01T08:34:10.830Z,64.28
2022-09-01T08:35:11.554Z,64.28
2022-09-01T08:36:11.495Z,64.14
2022-09-01T08:37:11.125Z,64.22
2022-09-01T08:38:10.636Z,64.21
2022-09-01T08:39:11.261Z,64.33
2022-09-01T08:40:11.251Z,64.23
2022-09-01T08:41:10.719Z,63.88
2022-09-01T08:42:12.427Z,63.94
2022-09-01T08:43:16.860Z,63.97
2022-09-01T08:44:11.407Z,63.92
2022-09-01T08:45:11.024Z,63.92
2022-09-01T08:46:10.665Z,63.77
2022-09-01T08:47:17.472Z,63.72
2022-09-01T08:49:27.556Z,63.63
2022-09-01T08:49:42.132Z,63.63
2022-09-01T08:50:11.576Z,63.63
2022-09-01T08:51:20.866Z,63.61
2022-09-01T08:52:11.101Z,63.61
2022-09-01T08:53:13.310Z,63.74
2022-09-01T08:54:10.561Z,63.95
2022-09-01T08:55:10.880Z,63.97
2022-09-01T08:56:11.454Z,63.80
2022-09-01T08:57:11.041Z,63.65
2022-09-01T08:58:10.609Z,63.65
2022-09-01T08:59:11.063Z,63.48
2022-09-01T09:00:11.555Z,63.42
2022-09-01T09:01:10.832Z,63.38
2022-09-01T09:02:11.603Z,63.44
2022-09-01T09:03:12.403Z,63.52
2022-09-01T09:04:10.681Z,63.60
2022-09-01T09:05:19.686Z,63.72
2022-09-01T09:06:11.157Z,63.72
2022-09-01T09:07:10.787Z,63.72
2022-09-01T09:08:11.658Z,63.52
2022-09-01T09:09:11.073Z,63.27
2022-09-01T09:10:10.813Z,63.00
2022-09-01T09:11:11.262Z,62.78
2022-09-01T09:12:12.422Z,62.52
2022-09-01T09:13:10.651Z,62.21
2022-09-01T09:14:11.283Z,62.15
2022-09-01T09:15:11.025Z,62.15
2022-09-01T09:16:11.890Z,62.10
2022-09-01T09:17:11.555Z,62.24
2022-09-01T09:18:40.482Z,62.40
2022-09-01T09:19:11.056Z,62.40
2022-09-01T09:20:10.632Z,62.43
2022-09-01T09:21:10.740Z,62.45
2022-09-01T09:22:11.328Z,62.47
2022-09-01T09:23:10.930Z,62.41
2022-09-01T09:24:11.512Z,62.43
2022-09-01T09:25:11.879Z,62.12
2022-09-01T09:26:16.744Z,61.81
2022-09-01T09:27:16.390Z,61.76
2022-09-01T09:28:12.774Z,61.67
2022-09-01T09:29:11.045Z,61.60
2022-09-01T09:30:15.176Z,61.49
2022-09-01T09:31:11.785Z,61.40
2022-09-01T09:32:39.772Z,61.20
2022-09-01T09:33:57.777Z,61.42
2022-09-01T09:34:11.153Z,61.42
2022-09-01T09:35:10.806Z,61.33
2022-09-01T09:36:11.349Z,61.11
2022-09-01T09:37:10.645Z,61.07
2022-09-01T09:38:11.597Z,60.99
2022-09-01T09:39:11.253Z,60.81
2022-09-01T09:40:13.801Z,60.84
2022-09-01T09:41:25.722Z,60.94
2022-09-01T09:42:10.786Z,60.94
2022-09-01T09:43:11.135Z,60.75
2022-09-01T09:44:14.779Z,60.53
2022-09-01T09:45:11.699Z,60.40
2022-09-01T09:46:28.063Z,59.75
2022-09-01T09:47:43.233Z,59.92
2022-09-01T09:48:14.791Z,59.92
2022-09-01T09:49:10.861Z,59.97
2022-09-01T09:50:11.218Z,59.84
2022-09-01T09:51:13.994Z,59.77
2022-09-01T09:52:10.723Z,59.56
2022-09-01T09:53:11.578Z,59.41
2022-09-01T09:54:10.999Z,59.43
2022-09-01T09:55:10.487Z,59.38
2022-09-01T09:56:10.788Z,59.46
2022-09-01T09:57:11.339Z,59.47
2022-09-01T09:58:25.034Z,59.34
2022-09-01T09:59:10.567Z,59.34
2022-09-01T10:00:29.237Z,59.09
2022-09-01T10:01:11.147Z,59.09
2022-09-01T10:02:11.118Z,58.85
2022-09-01T10:03:12.613Z,58.75
2022-09-01T10:04:11.902Z,58.86
2022-09-01T10:05:11.435Z,58.87
2022-09-01T10:06:11.313Z,58.63
2022-09-01T10:07:11.515Z,58.31
2022-09-01T10:08:11.102Z,57.94
2022-09-01T10:09:12.816Z,57.89
2022-09-01T10:10:11.581Z,57.33
2022-09-01T10:11:11.745Z,57.34
2022-09-01T10:12:11.453Z,57.36
2022-09-01T10:13:11.386Z,57.13
2022-09-01T10:14:13.621Z,57.19
2022-09-01T10:15:17.682Z,57.20
2022-09-01T10:16:13.077Z,57.21
2022-09-01T10:17:11.299Z,57.23
2022-09-01T10:18:29.407Z,56.86
2022-09-01T10:19:19.877Z,56.85
2022-09-01T10:20:15.060Z,56.85
2022-09-01T10:21:10.642Z,57.13
2022-09-01T10:22:11.427Z,57.18
2022-09-01T10:23:19.248Z,57.18
2022-09-01T10:24:27.024Z,57.06
2022-09-01T10:25:14.358Z,57.06
2022-09-01T10:26:14.497Z,56.88
2022-09-01T10:27:18.229Z,56.69
2022-09-01T10:28:11.564Z,56.83
2022-09-01T10:29:15.930Z,56.95
2022-09-01T10:30:22.895Z,56.61
2022-09-01T10:31:13.240Z,56.61
2022-09-01T10:32:38.270Z,56.64
2022-09-01T10:33:22.475Z,56.68
2022-09-01T10:34:11.180Z,56.68
2022-09-01T10:35:11.629Z,56.57
2022-09-01T10:36:11.756Z,56.62
2022-09-01T10:37:16.016Z,56.23
2022-09-01T10:38:12.247Z,56.36
2022-09-01T10:39:12.777Z,56.41
2022-09-01T10:40:11.427Z,56.41
2022-09-01T10:41:15.013Z,56.55
2022-09-01T10:42:13.143Z,56.67
2022-09-01T10:43:16.342Z,56.52
2022-09-01T10:44:11.785Z,56.56
2022-09-01T10:45:11.869Z,56.64
2022-09-01T10:47:17.398Z,56.72
2022-09-01T10:48:18.218Z,56.57
2022-09-01T10:49:12.388Z,56.56
2022-09-01T10:50:13.925Z,56.20
2022-09-01T10:51:10.996Z,55.77
2022-09-01T10:52:32.857Z,55.93
2022-09-01T10:53:11.520Z,55.93
2022-09-01T10:54:11.638Z,56.05
2022-09-01T10:55:11.478Z,56.07
2022-09-01T10:56:35.503Z,56.00
2022-09-01T10:57:12.832Z,56.00
2022-09-01T10:59:40.096Z,55.89
2022-09-01T10:59:44.422Z,55.89
2022-09-01T11:00:39.375Z,55.74
2022-09-01T11:01:19.094Z,55.74
2022-09-01T11:02:35.971Z,55.55
2022-09-01T11:03:41.081Z,55.47
2022-09-01T11:04:11.377Z,55.47
2022-09-01T11:05:11.831Z,55.50
2022-09-01T11:06:17.053Z,55.48
2022-09-01T11:07:50.427Z,55.35
2022-09-01T11:09:10.763Z,55.25
2022-09-01T11:10:31.652Z,55.19
2022-09-01T11:11:13.085Z,54.96
2022-09-01T11:12:11.001Z,54.73
2022-09-01T11:13:11.235Z,54.51
2022-09-01T11:14:10.806Z,54.46
2022-09-01T11:15:12.297Z,54.45
2022-09-01T11:16:10.954Z,54.48
2022-09-01T11:17:11.979Z,54.36
2022-09-01T11:18:11.273Z,54.41
2022-09-01T11:19:17.492Z,54.5
2022-09-01T11:20:11.602Z,54.53
2022-09-01T11:21:12.810Z,54.55
2022-09-01T11:22:13.052Z,54.03
2022-09-01T11:23:12.741Z,53.98
2022-09-01T11:24:12.486Z,54.19
2022-09-01T11:25:16.417Z,54.19
2022-09-01T11:26:24.813Z,53.88
2022-09-01T11:27:11.502Z,53.88
2022-09-01T11:28:11.711Z,53.94
2022-09-01T11:29:10.965Z,53.25
2022-09-01T11:30:10.976Z,52.79
2022-09-01T11:31:10.956Z,52.98
2022-09-01T11:32:12.172Z,52.98
2022-09-01T11:33:10.685Z,52.74
2022-09-01T11:34:10.950Z,52.70
2022-09-01T11:35:11.518Z,52.70
2022-09-01T11:36:10.694Z,52.75
2022-09-01T11:37:10.668Z,52.64
2022-09-01T11:38:10.464Z,52.67
2022-09-01T11:39:11.466Z,52.73
2022-09-01T11:40:11.628Z,52.75
2022-09-01T11:41:11.197Z,52.69
2022-09-01T11:42:10.860Z,52.85
2022-09-01T11:43:16.687Z,52.91
2022-09-01T11:44:11.637Z,52.97
2022-09-01T11:45:11.833Z,52.93
2022-09-01T11:46:11.732Z,52.97
2022-09-01T11:47:17.698Z,52.40
2022-09-01T11:48:11.389Z,52.39
2022-09-01T11:49:10.852Z,52.36
2022-09-01T11:50:11.589Z,51.89
2022-09-01T11:51:18.207Z,51.61
2022-09-01T11:52:10.920Z,51.63
2022-09-01T11:53:11.211Z,51.65
2022-09-01T11:54:10.698Z,51.48
2022-09-01T11:55:11.579Z,51.41
2022-09-01T11:56:11.492Z,51.32
2022-09-01T11:57:11.184Z,51.17
2022-09-01T11:58:13.468Z,51.11
2022-09-01T11:59:11.210Z,50.91
2022-09-01T12:00:11.718Z,50.84
2022-09-01T12:01:15.969Z,50.95
2022-09-01T12:02:11.713Z,51.14
2022-09-01T12:03:11.497Z,51.12
2022-09-01T12:04:11.212Z,50.71
2022-09-01T12:05:10.832Z,50.62
2022-09-01T12:06:11.393Z,50.78
2022-09-01T12:07:15.142Z,51.03
2022-09-01T12:08:11.111Z,51.13
2022-09-01T12:09:10.883Z,51.21
2022-09-01T12:10:11.553Z,51.21
2022-09-01T12:11:11.403Z,51.15
2022-09-01T12:12:11.334Z,51.38
2022-09-01T12:13:11.031Z,51.5
2022-09-01T12:14:15.102Z,50.93
2022-09-01T12:15:11.278Z,50.45
2022-09-01T12:16:22.280Z,50.64
2022-09-01T12:17:11.361Z,50.64
2022-09-01T12:18:10.910Z,50.66
2022-09-01T12:19:11.220Z,50.40
2022-09-01T12:20:10.829Z,50.70
2022-09-01T12:21:25.557Z,51.45
2022-09-01T12:22:11.173Z,51.45
2022-09-01T12:23:10.784Z,51.47
2022-09-01T12:24:11.725Z,51.91
2022-09-01T12:25:11.299Z,51.52
2022-09-01T12:26:10.680Z,51.70
2022-09-01T12:27:11.220Z,52.02
2022-09-01T12:28:14.920Z,52.42
2022-09-01T12:29:11.590Z,52.47
2022-09-01T12:30:11.235Z,52.65
2022-09-01T12:31:11.383Z,52.25
2022-09-01T12:32:11.261Z,52.15
2022-09-01T12:33:28.216Z,51.48
2022-09-01T12:34:10.736Z,51.48
2022-09-01T12:35:15.341Z,51.06
2022-09-01T12:36:11.319Z,51.24
2022-09-01T12:37:10.735Z,51.39
2022-09-01T12:38:13.261Z,51.36
2022-09-01T12:39:11.273Z,50.83
2022-09-01T12:40:11.459Z,50.38
2022-09-01T12:41:12.148Z,50.09
2022-09-01T12:42:10.810Z,50.03
2022-09-01T12:43:11.431Z,49.98
2022-09-01T12:44:10.973Z,50.05
2022-09-01T12:45:12.711Z,50.29
2022-09-01T12:46:17.545Z,50.36
2022-09-01T12:47:11.273Z,50.53
2022-09-01T12:48:10.616Z,50.66
2022-09-01T12:49:12.642Z,50.88
2022-09-01T12:50:11.407Z,50.83
2022-09-01T12:51:13.068Z,50.36
2022-09-01T12:52:10.465Z,50.12
2022-09-01T12:53:12.104Z,50.01
2022-09-01T12:54:13.121Z,49.31
2022-09-01T12:55:10.940Z,49.17
2022-09-01T12:56:11.802Z,49.22
2022-09-01T12:57:11.270Z,49.44
2022-09-01T12:58:10.743Z,49.48
2022-09-01T12:59:23.288Z,49.40
2022-09-01T13:00:12.259Z,49.40
2022-09-01T13:01:20.338Z,49.88
2022-09-01T13:02:12.219Z,49.88
2022-09-01T13:03:15.388Z,49.96
2022-09-01T13:04:11.157Z,49.86
2022-09-01T13:05:10.791Z,49.96
2022-09-01T13:06:12.681Z,50.00
2022-09-01T13:07:12.386Z,50.08
2022-09-01T13:08:11.182Z,50.02
2022-09-01T13:09:10.616Z,49.93
2022-09-01T13:10:10.975Z,49.90
2022-09-01T13:11:11.701Z,49.83
2022-09-01T13:12:12.119Z,49.70
2022-09-01T13:13:10.326Z,49.40
2022-09-01T13:14:10.771Z,49.41
2022-09-01T13:16:11.553Z,48.81
2022-09-01T13:17:17.595Z,48.83
2022-09-01T13:18:11.690Z,48.27
2022-09-01T13:19:21.856Z,47.86
2022-09-01T13:20:10.906Z,47.38
2022-09-01T13:21:11.515Z,47.17
2022-09-01T13:22:10.969Z,47.22
2022-09-01T13:23:10.683Z,47.31
2022-09-01T13:24:11.049Z,47.33
2022-09-01T13:25:10.855Z,47.39
2022-09-01T13:26:11.623Z,47.12
2022-09-01T13:27:26.656Z,46.99
2022-09-01T13:28:11.561Z,46.99
2022-09-01T13:29:11.077Z,46.81
2022-09-01T13:30:11.053Z,46.47
2022-09-01T13:31:36.648Z,45.79
2022-09-01T13:32:25.970Z,45.86
2022-09-01T13:33:27.355Z,45.69
2022-09-01T13:34:27.520Z,45.62
2022-09-01T13:35:11.374Z,45.62
2022-09-01T13:36:43.714Z,45.87
2022-09-01T13:37:11.477Z,45.87
2022-09-01T13:38:11.150Z,45.95
2022-09-01T13:39:12.010Z,46.00
2022-09-01T13:40:11.630Z,46.18
2022-09-01T13:41:11.683Z,45.68
2022-09-01T13:42:11.353Z,45.79
2022-09-01T13:43:10.982Z,45.61
2022-09-01T13:44:11.704Z,45.65
2022-09-01T13:45:11.625Z,45.88
2022-09-01T13:46:12.232Z,45.91
2022-09-01T13:47:34.154Z,45.77
2022-09-01T13:50:05.874Z,45.72
2022-09-01T13:50:17.291Z,45.72
2022-09-01T13:51:22.211Z,45.76
2022-09-01T13:52:10.979Z,45.76
2022-09-01T13:53:11.708Z,45.68
2022-09-01T13:54:11.508Z,45.68
2022-09-01T13:55:11.328Z,45.40
2022-09-01T13:56:11.387Z,45.43
2022-09-01T13:57:11.302Z,45.56
2022-09-01T13:58:11.111Z,45.64
2022-09-01T13:59:10.792Z,45.75
2022-09-01T14:00:13.332Z,45.84
2022-09-01T14:01:12.475Z,45.97
2022-09-01T14:02:11.656Z,46.15
2022-09-01T14:03:11.585Z,46.30
2022-09-01T14:04:11.688Z,46.41
2022-09-01T14:05:11.495Z,46.57
2022-09-01T14:06:11.203Z,46.58
2022-09-01T14:07:11.050Z,46.5
2022-09-01T14:08:10.824Z,46.81
2022-09-01T14:09:15.606Z,46.92
2022-09-01T14:10:11.286Z,46.81
2022-09-01T14:11:10.918Z,46.68
2022-09-01T14:12:11.771Z,46.66
2022-09-01T14:13:11.362Z,46.69
2022-09-01T14:14:11.114Z,46.71
2022-09-01T14:15:23.735Z,46.68
2022-09-01T14:16:11.136Z,46.68
2022-09-01T14:17:11.078Z,46.69
2022-09-01T14:18:10.563Z,46.59
2022-09-01T14:19:11.262Z,46.47
2022-09-01T14:20:11.289Z,46.13
2022-09-01T14:21:11.081Z,46.02
2022-09-01T14:22:15.811Z,46.12
2022-09-01T14:23:11.588Z,46.34
2022-09-01T14:24:11.220Z,45.88
2022-09-01T14:25:10.990Z,45.76
2022-09-01T14:26:11.224Z,45.91
2022-09-01T14:27:11.034Z,46.09
2022-09-01T14:28:20.474Z,46.00
2022-09-01T14:29:11.842Z,45.52
2022-09-01T14:30:12.324Z,45.50
2022-09-01T14:31:11.259Z,45.14
2022-09-01T14:32:11.840Z,44.91
2022-09-01T14:33:12.088Z,44.78